Time;durP1;ratioP1;P1;durP2;ratioP2;P2;SDS_P1;SDS_P2;PMS_P1;PMS_P2;Temp;Humidity;BMP_temperature;BMP_pressure;BME280_temperature;BME280_humidity;BME280_pressure;Samples;Min_cycle;Max_cycle;Signal;HPM_P1;HPM_P2
2021/01/02 00:00:01;;;;;;;20.90;10.80;;;-0.50;99.90;;;;;;5079116;28;20466;-85
2021/01/02 00:02:41;;;;;;;16.17;10.00;;;-0.20;99.90;;;;;;5079066;28;20465;-88
2021/01/02 00:05:09;;;;;;;15.07;9.30;;;-0.40;99.90;;;;;;5078902;28;20966;-86
2021/01/02 00:08:11;;;;;;;21.17;10.77;;;-0.30;99.90;;;;;;5079425;28;20453;-87
2021/01/02 00:10:45;;;;;;;15.83;9.80;;;-0.40;99.90;;;;;;5078954;28;20510;-85
2021/01/02 00:13:47;;;;;;;18.60;10.63;;;-0.40;99.90;;;;;;5076971;28;21003;-88
2021/01/02 00:16:39;;;;;;;14.57;9.67;;;0.30;99.90;;;;;;5079226;28;20469;-85
2021/01/02 00:19:07;;;;;;;16.87;9.80;;;-0.30;99.90;;;;;;5074013;28;20459;-87
2021/01/02 00:21:44;;;;;;;18.30;9.87;;;-0.40;99.90;;;;;;5072573;28;20928;-86
2021/01/02 00:24:31;;;;;;;15.30;9.70;;;-0.20;99.90;;;;;;5075682;28;20450;-87
2021/01/02 00:27:10;;;;;;;15.07;10.30;;;-0.40;99.90;;;;;;5075484;28;20540;-87
2021/01/02 00:30:05;;;;;;;18.63;10.27;;;-0.20;99.90;;;;;;5075603;28;20456;-86
2021/01/02 00:32:55;;;;;;;15.57;10.30;;;-0.30;99.90;;;;;;5075146;28;20479;-85
2021/01/02 00:35:23;;;;;;;16.87;10.57;;;-0.60;99.90;;;;;;5072293;28;20452;-87
2021/01/02 00:38:01;;;;;;;13.23;8.90;;;-0.10;99.90;;;;;;5075423;28;20818;-84
2021/01/02 00:40:28;;;;;;;14.90;8.70;;;-0.60;99.90;;;;;;5075074;28;20441;-86
2021/01/02 00:42:55;;;;;;;14.40;9.47;;;0.00;99.90;;;;;;5075190;28;20439;-86
2021/01/02 00:45:23;;;;;;;16.70;10.13;;;-0.20;99.90;;;;;;5071961;28;20455;-85
2021/01/02 00:47:50;;;;;;;15.37;10.00;;;-0.20;99.90;;;;;;5070803;28;20472;-86
2021/01/02 00:50:19;;;;;;;15.33;9.87;;;-0.20;99.90;;;;;;5075152;28;20436;-86
2021/01/02 00:53:21;;;;;;;18.30;10.30;;;-0.10;99.90;;;;;;5074815;28;20506;-88
2021/01/02 00:56:05;;;;;;;16.67;10.17;;;0.10;99.90;;;;;;5074943;28;20452;-86
2021/01/02 00:59:12;;;;;;;16.20;9.77;;;-0.10;99.90;;;;;;5069413;28;20445;-85
2021/01/02 01:01:46;;;;;;;19.37;11.47;;;0.40;99.90;;;;;;5074883;28;20443;-86
2021/01/02 01:04:41;;;;;;;18.10;11.60;;;0.40;99.90;;;;;;5073776;28;20450;-87
2021/01/02 01:07:16;;;;;;;15.90;10.33;;;0.00;99.90;;;;;;5074856;28;20437;-87
2021/01/02 01:09:48;;;;;;;22.57;11.20;;;0.10;99.90;;;;;;5074508;28;20440;-85
2021/01/02 01:12:17;;;;;;;19.20;11.43;;;0.20;99.90;;;;;;5074690;28;20448;-86
2021/01/02 01:14:45;;;;;;;25.33;11.00;;;0.20;99.90;;;;;;5074620;28;20457;-85
2021/01/02 01:17:20;;;;;;;16.57;11.30;;;0.30;99.90;;;;;;5074710;28;20448;-85
2021/01/02 01:19:53;;;;;;;15.53;10.50;;;0.10;99.90;;;;;;5073226;28;20449;-84
2021/01/02 01:22:24;;;;;;;19.37;10.60;;;0.80;99.90;;;;;;5069967;28;20456;-84
2021/01/02 01:25:01;;;;;;;19.87;12.20;;;0.20;99.90;;;;;;5074245;28;20449;-84
2021/01/02 01:27:30;;;;;;;16.77;10.80;;;0.40;99.90;;;;;;5074224;28;20448;-84
2021/01/02 01:29:59;;;;;;;23.30;14.20;;;0.30;99.90;;;;;;5068715;28;20452;-84
2021/01/02 01:32:28;;;;;;;37.90;22.20;;;0.50;99.90;;;;;;5073882;28;20818;-84
2021/01/02 01:34:59;;;;;;;26.33;15.93;;;0.70;99.90;;;;;;5072745;28;20528;-85
2021/01/02 01:37:30;;;;;;;19.10;12.60;;;0.50;99.90;;;;;;5073984;28;20458;-85
2021/01/02 01:39:57;;;;;;;14.87;11.50;;;0.50;99.90;;;;;;5074079;28;20476;-84
2021/01/02 01:42:40;;;;;;;22.60;15.40;;;0.70;99.90;;;;;;5070895;28;20926;-84
2021/01/02 01:45:23;;;;;;;15.53;10.60;;;0.50;99.90;;;;;;5073973;28;20469;-86
2021/01/02 01:47:57;;;;;;;16.47;11.80;;;0.80;99.90;;;;;;5069501;28;20473;-85
2021/01/02 01:50:27;;;;;;;17.57;11.50;;;0.70;99.90;;;;;;5073861;28;20443;-84
2021/01/02 01:53:26;;;;;;;17.10;10.87;;;0.30;99.90;;;;;;5073569;28;20493;-84
2021/01/02 01:55:58;;;;;;;16.47;10.97;;;0.60;99.90;;;;;;5073015;28;20508;-85
2021/01/02 01:58:43;;;;;;;14.40;9.77;;;0.60;99.90;;;;;;5073638;28;20450;-84
2021/01/02 02:01:11;;;;;;;17.80;10.33;;;1.10;99.90;;;;;;5069723;28;20461;-84
2021/01/02 02:03:48;;;;;;;16.80;11.47;;;0.60;99.90;;;;;;5072370;28;20812;-84
2021/01/02 02:06:24;;;;;;;15.40;10.80;;;0.60;99.90;;;;;;5073540;28;20449;-84
2021/01/02 02:08:58;;;;;;;15.80;10.40;;;0.70;99.90;;;;;;5068312;28;20445;-84
2021/01/02 02:12:02;;;;;;;16.73;10.07;;;0.50;99.90;;;;;;5073422;28;20499;-84
2021/01/02 02:14:38;;;;;;;16.00;10.47;;;0.80;99.90;;;;;;5032068;28;20492;-84
2021/01/02 02:17:05;;;;;;;17.50;10.60;;;0.60;99.90;;;;;;5073335;28;20445;-85
2021/01/02 02:19:47;;;;;;;19.37;11.40;;;1.10;99.90;;;;;;5072138;28;20450;-84
2021/01/02 02:22:15;;;;;;;16.63;11.70;;;0.60;99.90;;;;;;5071330;28;20452;-85
2021/01/02 02:24:43;;;;;;;16.50;10.50;;;0.20;99.90;;;;;;5073006;28;20451;-84
2021/01/02 02:27:13;;;;;;;14.90;10.10;;;0.70;99.90;;;;;;5073074;28;20774;-85
2021/01/02 02:29:58;;;;;;;18.20;11.70;;;0.70;99.90;;;;;;5070176;28;20445;-85
2021/01/02 02:32:27;;;;;;;14.90;10.70;;;0.70;99.90;;;;;;5069827;28;20441;-86
2021/01/02 02:34:53;;;;;;;16.70;10.90;;;1.30;99.90;;;;;;5071860;28;20453;-84
2021/01/02 02:37:20;;;;;;;17.67;10.63;;;0.60;99.90;;;;;;5072914;28;20453;-85
2021/01/02 02:39:47;;;;;;;16.27;10.73;;;0.70;99.90;;;;;;5073069;28;20454;-85
2021/01/02 02:42:16;;;;;;;17.10;11.90;;;0.80;99.90;;;;;;5072581;28;20442;-85
2021/01/02 02:44:47;;;;;;;15.80;11.10;;;0.90;99.90;;;;;;5072822;28;20936;-85
2021/01/02 02:47:16;;;;;;;15.33;9.67;;;0.90;99.90;;;;;;5072916;28;20468;-85
2021/01/02 02:49:46;;;;;;;16.13;11.60;;;0.90;99.90;;;;;;5071690;28;20456;-84
2021/01/02 02:52:20;;;;;;;17.20;12.00;;;0.70;99.90;;;;;;5072896;28;20947;-85
2021/01/02 02:54:46;;;;;;;16.07;10.53;;;0.90;99.90;;;;;;5072776;28;20497;-87
2021/01/02 02:57:16;;;;;;;20.30;11.60;;;0.80;99.90;;;;;;5072793;28;20444;-84
2021/01/02 02:59:42;;;;;;;18.23;11.93;;;0.80;99.90;;;;;;5072807;28;20449;-84
2021/01/02 03:02:10;;;;;;;18.37;13.30;;;0.60;99.90;;;;;;5072665;28;20449;-85
2021/01/02 03:04:36;;;;;;;18.33;11.93;;;0.60;99.90;;;;;;5071611;28;20519;-85
2021/01/02 03:07:04;;;;;;;16.03;10.70;;;1.30;99.90;;;;;;5067465;28;20813;-85
2021/01/02 03:09:31;;;;;;;16.90;12.17;;;0.20;99.90;;;;;;5072615;28;21072;-84
2021/01/02 03:11:58;;;;;;;19.17;12.40;;;;;;;;;;5072656;28;20474;-85
2021/01/02 03:14:24;;;;;;;17.43;11.30;;;0.90;99.90;;;;;;5072559;28;20488;-85
2021/01/02 03:16:55;;;;;;;17.67;11.77;;;0.70;99.90;;;;;;5072569;28;20526;-85
2021/01/02 03:19:21;;;;;;;17.27;12.00;;;0.40;99.90;;;;;;5068253;28;20472;-85
2021/01/02 03:21:47;;;;;;;17.40;11.97;;;0.40;99.90;;;;;;5072698;28;20452;-85
2021/01/02 03:24:14;;;;;;;17.60;11.43;;;0.90;99.90;;;;;;5072642;28;20453;-85
2021/01/02 03:26:41;;;;;;;19.13;12.40;;;;;;;;;;5069343;28;20479;-85
2021/01/02 03:29:08;;;;;;;18.60;12.67;;;;;;;;;;5072546;28;20446;-85
2021/01/02 03:31:34;;;;;;;19.90;12.07;;;;;;;;;;5072299;28;20499;-84
2021/01/02 03:34:01;;;;;;;23.10;12.20;;;0.40;99.90;;;;;;5071320;28;20493;-85
2021/01/02 03:36:29;;;;;;;18.83;12.73;;;0.50;99.90;;;;;;5068399;28;20460;-85
2021/01/02 03:38:57;;;;;;;20.07;13.37;;;0.90;99.90;;;;;;5064952;28;20463;-85
2021/01/02 03:41:25;;;;;;;17.60;11.80;;;0.60;99.90;;;;;;5072525;28;20849;-85
2021/01/02 03:43:51;;;;;;;22.13;13.60;;;;;;;;;;5072374;28;20464;-84
2021/01/02 03:46:18;;;;;;;19.67;13.20;;;0.70;99.90;;;;;;5072356;28;20519;-85
2021/01/02 03:48:45;;;;;;;21.00;13.33;;;0.60;99.90;;;;;;5068154;28;20861;-85
2021/01/02 03:51:11;;;;;;;19.97;13.73;;;0.70;99.90;;;;;;5067012;28;20808;-84
2021/01/02 03:53:37;;;;;;;21.00;13.27;;;0.90;99.90;;;;;;5074199;28;20489;-85
2021/01/02 03:56:03;;;;;;;19.10;11.80;;;0.90;99.90;;;;;;5076045;28;20476;-84
2021/01/02 03:58:31;;;;;;;19.63;12.57;;;0.90;99.90;;;;;;5075936;28;20447;-84
2021/01/02 04:00:57;;;;;;;20.40;12.57;;;0.90;99.90;;;;;;5076116;28;20453;-85
2021/01/02 04:03:23;;;;;;;19.80;13.43;;;0.70;99.90;;;;;;5074757;28;20464;-84
2021/01/02 04:05:50;;;;;;;21.50;13.23;;;0.70;99.90;;;;;;5075961;28;20446;-85
2021/01/02 04:08:17;;;;;;;17.47;12.13;;;0.60;99.90;;;;;;5071324;28;20448;-85
2021/01/02 04:10:44;;;;;;;20.97;12.73;;;0.70;99.90;;;;;;5075743;28;20496;-85
2021/01/02 04:13:10;;;;;;;20.10;13.37;;;0.70;99.90;;;;;;5075421;28;20481;-85
2021/01/02 04:15:37;;;;;;;20.93;13.13;;;0.80;99.90;;;;;;5075706;28;20868;-85
2021/01/02 04:18:04;;;;;;;22.27;13.07;;;0.70;99.90;;;;;;5074472;28;20452;-87
2021/01/02 04:20:30;;;;;;;20.43;13.30;;;1.00;99.90;;;;;;5075619;28;20799;-84
2021/01/02 04:22:57;;;;;;;19.23;12.60;;;0.80;99.90;;;;;;5075513;28;20476;-85
2021/01/02 04:25:23;;;;;;;21.67;14.30;;;1.00;99.90;;;;;;5075277;28;20478;-84
2021/01/02 04:27:49;;;;;;;24.40;13.63;;;1.00;99.90;;;;;;5075220;28;20460;-84
2021/01/02 04:30:17;;;;;;;23.37;13.73;;;1.30;99.90;;;;;;5075444;28;20461;-85
2021/01/02 04:32:48;;;;;;;21.63;12.37;;;0.90;99.90;;;;;;5074068;28;20452;-84
2021/01/02 04:35:14;;;;;;;23.63;13.97;;;0.80;99.90;;;;;;5075258;28;20461;-86
2021/01/02 04:37:41;;;;;;;22.03;13.83;;;1.00;99.90;;;;;;5075221;28;20450;-84
2021/01/02 04:40:10;;;;;;;20.50;14.00;;;0.90;99.90;;;;;;5075189;28;20461;-84
2021/01/02 04:42:40;;;;;;;23.83;14.97;;;0.60;99.90;;;;;;5075036;28;20462;-85
2021/01/02 04:45:08;;;;;;;23.07;13.07;;;1.10;99.90;;;;;;5074978;28;20940;-84
2021/01/02 04:47:36;;;;;;;22.00;12.47;;;0.90;99.90;;;;;;5074327;28;20836;-84
2021/01/02 04:50:05;;;;;;;20.43;13.17;;;1.00;99.90;;;;;;5074966;28;20513;-85
2021/01/02 04:52:32;;;;;;;22.23;13.63;;;0.90;99.90;;;;;;5074962;28;20437;-84
2021/01/02 04:54:59;;;;;;;19.13;12.80;;;0.90;99.90;;;;;;5074701;28;20499;-84
2021/01/02 04:57:25;;;;;;;21.37;14.27;;;0.90;99.90;;;;;;5072033;28;20442;-84
2021/01/02 04:59:52;;;;;;;16.27;11.20;;;0.90;99.90;;;;;;5074722;28;20461;-84
2021/01/02 05:02:20;;;;;;;21.50;13.90;;;0.80;99.90;;;;;;5071759;28;20458;-85
2021/01/02 05:04:47;;;;;;;21.13;14.10;;;1.20;99.90;;;;;;5073235;28;20530;-84
2021/01/02 05:07:24;;;;;;;21.57;13.80;;;1.00;99.90;;;;;;5074803;28;20484;-85
2021/01/02 05:09:50;;;;;;;20.43;13.87;;;0.90;99.90;;;;;;5074745;28;20475;-84
2021/01/02 05:12:27;;;;;;;20.23;12.80;;;0.70;99.90;;;;;;5074580;28;20453;-85
2021/01/02 05:15:05;;;;;;;23.03;14.80;;;0.90;99.90;;;;;;5074532;28;20493;-87
2021/01/02 05:17:32;;;;;;;18.90;12.63;;;;;;;;;;5074423;28;20448;-85
2021/01/02 05:20:00;;;;;;;23.80;14.40;;;0.40;99.90;;;;;;5073637;28;20446;-85
2021/01/02 05:22:28;;;;;;;21.87;14.70;;;1.00;99.90;;;;;;5074458;28;20452;-85
2021/01/02 05:25:08;;;;;;;23.70;14.70;;;1.00;99.90;;;;;;5074389;28;20814;-84
2021/01/02 05:27:34;;;;;;;22.80;14.77;;;1.10;99.90;;;;;;5039205;28;20437;-85
2021/01/02 05:30:15;;;;;;;25.80;15.33;;;1.50;99.90;;;;;;5069182;28;20457;-85
2021/01/02 05:33:07;;;;;;;25.10;15.90;;;1.30;99.90;;;;;;5072863;28;20826;-84
2021/01/02 05:35:38;;;;;;;25.30;13.20;;;1.00;99.90;;;;;;5055518;28;20458;-85
2021/01/02 05:38:14;;;;;;;23.20;14.17;;;0.90;99.90;;;;;;5074167;28;20843;-86
2021/01/02 05:40:42;;;;;;;26.30;15.23;;;0.80;99.90;;;;;;5074029;28;20452;-85
2021/01/02 05:43:08;;;;;;;32.80;16.17;;;1.20;99.90;;;;;;5068676;28;20459;-85
2021/01/02 05:45:34;;;;;;;26.03;15.43;;;1.10;99.90;;;;;;5073902;28;20471;-86
2021/01/02 05:48:12;;;;;;;28.30;15.67;;;1.00;99.90;;;;;;5072696;28;20453;-85
2021/01/02 05:50:44;;;;;;;24.80;15.40;;;1.30;99.90;;;;;;5073958;28;20494;-85
2021/01/02 05:53:28;;;;;;;28.27;16.70;;;0.90;99.90;;;;;;5073794;28;20496;-85
2021/01/02 05:56:00;;;;;;;29.00;15.83;;;1.20;99.90;;;;;;5073796;28;20449;-85
2021/01/02 05:58:26;;;;;;;29.27;16.87;;;1.70;99.90;;;;;;5073668;28;20960;-84
2021/01/02 06:01:04;;;;;;;30.40;17.60;;;1.00;99.90;;;;;;5073581;28;20457;-84
2021/01/02 06:03:30;;;;;;;32.40;16.37;;;0.90;99.90;;;;;;5072412;28;20499;-85
2021/01/02 06:05:58;;;;;;;29.47;17.30;;;1.00;99.90;;;;;;5073499;28;20460;-85
2021/01/02 06:08:36;;;;;;;31.00;16.03;;;1.00;99.90;;;;;;5073501;28;20441;-84
2021/01/02 06:11:05;;;;;;;28.10;15.07;;;1.00;99.90;;;;;;5073423;28;20444;-85
2021/01/02 06:13:33;;;;;;;29.43;16.17;;;2.20;99.90;;;;;;5073437;28;20502;-84
2021/01/02 06:16:01;;;;;;;26.47;15.40;;;1.10;99.90;;;;;;5067494;28;20456;-85
2021/01/02 06:18:29;;;;;;;28.93;15.20;;;1.10;99.90;;;;;;5069156;28;20454;-85
2021/01/02 06:20:57;;;;;;;29.67;16.23;;;1.00;99.90;;;;;;5073318;28;20445;-84
2021/01/02 06:23:24;;;;;;;27.17;15.07;;;1.00;99.90;;;;;;5073271;28;20457;-84
2021/01/02 06:25:53;;;;;;;29.63;16.20;;;1.10;99.90;;;;;;5069958;28;20485;-86
2021/01/02 06:28:20;;;;;;;30.80;16.10;;;-0.30;99.90;;;;;;5073171;28;20441;-86
2021/01/02 06:30:47;;;;;;;28.37;15.27;;;1.00;99.90;;;;;;5073031;28;20459;-84
2021/01/02 06:33:17;;;;;;;30.00;14.40;;;1.00;99.90;;;;;;5068947;28;20508;-86
2021/01/02 06:35:43;;;;;;;24.53;14.50;;;0.80;99.90;;;;;;5068419;28;20455;-85
2021/01/02 06:38:12;;;;;;;27.10;15.53;;;0.80;99.90;;;;;;5073101;28;20586;-84
2021/01/02 06:40:40;;;;;;;33.57;15.40;;;1.00;99.90;;;;;;5072912;28;20465;-84
2021/01/02 06:43:08;;;;;;;28.50;14.33;;;0.90;99.90;;;;;;5072909;28;20450;-85
2021/01/02 06:45:58;;;;;;;28.77;16.03;;;1.10;99.90;;;;;;5072835;28;20820;-84
2021/01/02 06:48:43;;;;;;;33.07;14.10;;;1.30;99.90;;;;;;5068632;28;20449;-84
2021/01/02 06:51:36;;;;;;;26.87;14.00;;;1.10;99.90;;;;;;5073004;28;20451;-86
2021/01/02 06:54:21;;;;;;;26.97;13.20;;;1.00;99.90;;;;;;5036810;28;20485;-84
2021/01/02 06:57:00;;;;;;;24.20;13.70;;;1.00;99.90;;;;;;5072921;28;20445;-84
2021/01/02 06:59:27;;;;;;;21.17;13.07;;;1.00;99.90;;;;;;5072746;28;20445;-85
2021/01/02 07:01:53;;;;;;;26.57;14.13;;;;;;;;;;5072672;28;20449;-85
2021/01/02 07:04:35;;;;;;;27.67;14.27;;;1.00;99.90;;;;;;5071389;28;20451;-84
2021/01/02 07:07:01;;;;;;;23.73;14.00;;;1.10;99.90;;;;;;5072633;28;20468;-84
2021/01/02 07:09:29;;;;;;;26.10;14.50;;;0.40;99.90;;;;;;5072791;28;20455;-84
2021/01/02 07:12:13;;;;;;;24.20;14.70;;;1.10;99.90;;;;;;5072573;28;20442;-84
2021/01/02 07:14:41;;;;;;;22.30;13.40;;;1.10;99.90;;;;;;5072459;28;20487;-84
2021/01/02 07:17:10;;;;;;;21.87;12.90;;;0.90;99.90;;;;;;5072693;28;20449;-85
2021/01/02 07:19:51;;;;;;;24.17;13.40;;;1.10;99.90;;;;;;5071451;28;20460;-88
2021/01/02 07:22:27;;;;;;;23.40;13.27;;;1.10;99.90;;;;;;5072495;28;20454;-85
2021/01/02 07:25:01;;;;;;;25.07;13.67;;;0.80;99.90;;;;;;5072421;28;20444;-86
2021/01/02 07:27:30;;;;;;;20.27;12.10;;;0.60;99.90;;;;;;5074405;28;20539;-87
2021/01/02 07:30:02;;;;;;;22.07;12.80;;;0.80;99.90;;;;;;5076691;28;20503;-86
2021/01/02 07:32:30;;;;;;;23.87;13.73;;;0.90;99.90;;;;;;5076692;28;20521;-86
2021/01/02 07:34:57;;;;;;;22.77;12.80;;;1.00;99.90;;;;;;5075191;28;21003;-85
2021/01/02 07:37:25;;;;;;;25.40;12.70;;;0.90;99.90;;;;;;5076408;28;20499;-87
2021/01/02 07:39:56;;;;;;;23.07;12.83;;;1.10;99.90;;;;;;5076379;28;20449;-84
2021/01/02 07:42:24;;;;;;;25.13;14.83;;;1.00;99.90;;;;;;5076348;28;20452;-85
2021/01/02 07:44:59;;;;;;;29.27;14.10;;;0.80;99.90;;;;;;5076211;28;20479;-85
2021/01/02 07:47:26;;;;;;;23.60;14.07;;;0.90;99.90;;;;;;5076369;28;20452;-87
2021/01/02 07:50:00;;;;;;;21.70;12.67;;;1.10;99.90;;;;;;5075070;28;20782;-85
2021/01/02 07:52:26;;;;;;;27.83;13.60;;;1.00;99.90;;;;;;5076072;28;20791;-85
2021/01/02 07:54:52;;;;;;;25.90;16.13;;;0.90;99.90;;;;;;5071878;28;21034;-88
2021/01/02 07:57:24;;;;;;;27.57;14.70;;;0.80;99.90;;;;;;5073087;28;20441;-87
2021/01/02 07:59:51;;;;;;;29.70;16.37;;;0.70;99.90;;;;;;5071650;28;20449;-85
2021/01/02 08:02:22;;;;;;;24.73;13.87;;;0.80;99.90;;;;;;5072822;28;20455;-85
2021/01/02 08:04:50;;;;;;;34.53;16.57;;;2.10;99.90;;;;;;5070485;28;20948;-84
2021/01/02 08:07:16;;;;;;;23.30;14.37;;;0.70;99.90;;;;;;5065460;28;20449;-85
2021/01/02 08:09:44;;;;;;;28.93;15.50;;;0.80;99.90;;;;;;5065716;28;20447;-85
2021/01/02 08:12:11;;;;;;;28.97;16.37;;;0.80;99.90;;;;;;5058025;28;20447;-85
2021/01/02 08:14:42;;;;;;;26.90;14.50;;;0.80;99.90;;;;;;5055687;28;20552;-84
2021/01/02 08:17:10;;;;;;;28.43;15.33;;;1.00;99.90;;;;;;5055488;28;20452;-86
2021/01/02 08:19:40;;;;;;;30.47;16.00;;;0.60;99.90;;;;;;5068560;28;20501;-85
2021/01/02 08:22:08;;;;;;;27.17;14.87;;;1.00;99.90;;;;;;5075625;28;20459;-85
2021/01/02 08:24:35;;;;;;;29.73;17.73;;;1.10;99.90;;;;;;5075803;28;20444;-86
2021/01/02 08:27:02;;;;;;;32.33;16.97;;;0.60;99.90;;;;;;5075354;28;20496;-84
2021/01/02 08:29:32;;;;;;;26.60;16.10;;;1.10;99.90;;;;;;5070009;28;20492;-85
2021/01/02 08:32:01;;;;;;;27.20;14.80;;;0.90;99.90;;;;;;5075608;28;20443;-86
2021/01/02 08:34:30;;;;;;;26.70;14.70;;;1.10;99.90;;;;;;5074248;28;20530;-85
2021/01/02 08:37:07;;;;;;;27.83;14.90;;;1.20;99.90;;;;;;5075481;28;20445;-84
2021/01/02 08:39:34;;;;;;;22.00;14.23;;;1.30;99.90;;;;;;5074782;28;20502;-83
2021/01/02 08:42:01;;;;;;;28.57;17.23;;;;;;;;;;5075234;28;20441;-85
2021/01/02 08:44:30;;;;;;;24.53;16.37;;;1.20;99.90;;;;;;5074974;28;20470;-85
2021/01/02 08:46:57;;;;;;;26.87;15.77;;;1.60;99.90;;;;;;5075057;28;20457;-85
2021/01/02 08:49:45;;;;;;;25.00;14.13;;;0.90;99.90;;;;;;5069824;28;20449;-86
2021/01/02 08:52:35;;;;;;;29.33;15.93;;;1.00;99.90;;;;;;5075531;28;20453;-87
2021/01/02 08:55:10;;;;;;;25.63;14.50;;;1.00;99.90;;;;;;5075066;28;20497;-85
2021/01/02 08:57:43;;;;;;;25.80;16.00;;;1.20;99.90;;;;;;5075201;28;20448;-85
2021/01/02 09:00:12;;;;;;;22.40;14.30;;;1.20;99.90;;;;;;5072168;28;20456;-86
2021/01/02 09:02:40;;;;;;;23.80;14.03;;;1.20;99.90;;;;;;5070846;28;20450;-84
2021/01/02 09:05:10;;;;;;;25.77;14.57;;;1.40;99.90;;;;;;5078135;28;20465;-92
2021/01/02 09:07:37;;;;;;;22.17;12.20;;;;;;;;;;5078932;28;20454;-94
2021/01/02 09:10:23;;;;;;;22.63;13.77;;;1.50;99.90;;;;;;5083864;28;20497;-96
2021/01/02 09:13:23;;;;;;;23.40;13.33;;;1.20;99.90;;;;;;5084730;28;20471;-94
2021/01/02 09:15:59;;;;;;;20.00;12.60;;;1.20;99.90;;;;;;5081391;28;20478;-91
2021/01/02 09:18:43;;;;;;;26.90;13.97;;;1.10;99.90;;;;;;5083269;28;20946;-90
2021/01/02 09:21:23;;;;;;;23.20;13.30;;;1.10;99.90;;;;;;5080555;28;20445;-89
2021/01/02 09:23:56;;;;;;;21.40;13.10;;;1.50;99.90;;;;;;5083172;28;20448;-89
2021/01/02 09:26:38;;;;;;;21.97;13.00;;;1.10;99.90;;;;;;5076121;28;20562;-86
2021/01/02 09:29:13;;;;;;;26.07;13.77;;;1.40;99.90;;;;;;5071492;28;20465;-85
2021/01/02 09:31:39;;;;;;;25.67;14.10;;;1.40;99.90;;;;;;5074584;28;20464;-86
2021/01/02 09:34:06;;;;;;;24.30;13.70;;;1.20;99.90;;;;;;5073092;28;20493;-87
2021/01/02 09:36:32;;;;;;;21.57;14.77;;;1.30;99.90;;;;;;5074051;28;20445;-86
2021/01/02 09:39:00;;;;;;;18.83;12.83;;;1.40;99.90;;;;;;5074163;28;20455;-85
2021/01/02 09:41:28;;;;;;;27.87;14.70;;;1.50;99.90;;;;;;5075812;28;20457;-92
2021/01/02 09:43:55;;;;;;;27.97;15.17;;;0.90;99.90;;;;;;5074908;28;20499;-87
2021/01/02 09:46:22;;;;;;;26.60;14.40;;;1.20;99.90;;;;;;5074025;28;20781;-86
2021/01/02 09:48:50;;;;;;;23.87;13.67;;;1.30;99.90;;;;;;5072820;28;20457;-86
2021/01/02 09:51:17;;;;;;;23.47;12.70;;;1.40;99.90;;;;;;5072828;28;20449;-86
2021/01/02 09:53:44;;;;;;;25.90;14.87;;;2.00;99.90;;;;;;5073867;28;20549;-88
2021/01/02 09:56:10;;;;;;;24.93;14.60;;;1.60;99.90;;;;;;5073902;28;20842;-87
2021/01/02 09:58:38;;;;;;;21.60;13.83;;;1.40;99.90;;;;;;5073916;28;20500;-85
2021/01/02 10:01:05;;;;;;;26.10;14.90;;;1.60;99.90;;;;;;5073699;28;20452;-85
2021/01/02 10:03:31;;;;;;;20.53;13.17;;;1.60;99.90;;;;;;5072518;28;20491;-86
2021/01/02 10:05:58;;;;;;;21.33;13.53;;;1.30;99.90;;;;;;5073723;28;20456;-86
2021/01/02 10:08:24;;;;;;;21.23;12.77;;;1.60;99.90;;;;;;5073856;28;20788;-86
2021/01/02 10:10:51;;;;;;;22.50;14.00;;;1.50;99.90;;;;;;5069647;28;20461;-86
2021/01/02 10:13:17;;;;;;;23.80;14.10;;;1.70;99.90;;;;;;5070406;28;20932;-86
2021/01/02 10:15:44;;;;;;;23.90;13.87;;;1.70;99.90;;;;;;5073356;28;20457;-86
2021/01/02 10:18:10;;;;;;;20.47;12.70;;;1.70;99.90;;;;;;5072164;28;20441;-85
2021/01/02 10:20:38;;;;;;;18.60;12.73;;;;;;;;;;5073293;28;20454;-86
2021/01/02 10:23:04;;;;;;;22.93;12.90;;;2.10;99.90;;;;;;5073593;28;20449;-86
2021/01/02 10:25:31;;;;;;;24.93;14.70;;;2.30;99.90;;;;;;5073223;28;20524;-86
2021/01/02 10:27:57;;;;;;;20.73;13.10;;;2.10;99.90;;;;;;5073364;28;20447;-88
2021/01/02 10:30:24;;;;;;;19.67;12.93;;;1.90;99.90;;;;;;5074020;28;20461;-88
2021/01/02 10:32:51;;;;;;;24.40;15.00;;;2.10;99.90;;;;;;5072733;28;20932;-89
2021/01/02 10:35:18;;;;;;;21.50;14.17;;;2.20;99.90;;;;;;5073705;28;20562;-86
2021/01/02 10:37:47;;;;;;;20.60;13.27;;;2.30;99.90;;;;;;5073571;28;20499;-87
2021/01/02 10:40:22;;;;;;;25.63;15.60;;;2.10;99.90;;;;;;5075165;28;20456;-96
2021/01/02 10:42:49;;;;;;;22.20;13.43;;;;;;;;;;5067976;28;20457;-94
2021/01/02 10:48:19;;;;;;;22.07;13.70;;;2.80;99.90;;;;;;5089466;22;20602;-94
2021/01/02 10:50:46;;;;;;;19.40;11.70;;;;;;;;;;5081313;28;20449;-94
2021/01/02 10:53:14;;;;;;;19.57;12.10;;;;;;;;;;5081724;28;20464;-94
2021/01/02 10:55:41;;;;;;;22.03;14.17;;;;;;;;;;5084944;28;20457;-92
2021/01/02 10:58:08;;;;;;;19.80;12.17;;;;;;;;;;5076177;28;20469;-94
2021/01/02 11:00:34;;;;;;;18.40;12.07;;;;;;;;;;5082316;28;20476;-93
2021/01/02 11:03:01;;;;;;;17.00;11.43;;;;;;;;;;5082313;28;20458;-89
2021/01/02 11:05:28;;;;;;;16.53;11.40;;;2.30;99.90;;;;;;5073217;28;20457;-86
2021/01/02 11:07:54;;;;;;;16.80;11.83;;;2.50;99.90;;;;;;5072651;28;20457;-86
2021/01/02 11:10:20;;;;;;;17.33;11.33;;;2.60;99.90;;;;;;5072758;28;20449;-88
2021/01/02 11:12:46;;;;;;;22.73;13.30;;;2.90;99.90;;;;;;5066184;28;20446;-85
2021/01/02 11:15:13;;;;;;;18.30;12.27;;;2.70;99.90;;;;;;5072604;28;21002;-86
2021/01/02 11:17:40;;;;;;;20.13;12.57;;;;;;;;;;5071654;28;20933;-87
2021/01/02 11:20:08;;;;;;;20.60;13.37;;;2.50;99.90;;;;;;5072709;28;20454;-86
2021/01/02 11:22:35;;;;;;;17.80;11.80;;;2.60;99.90;;;;;;5072724;28;20464;-87
2021/01/02 11:25:01;;;;;;;22.37;13.87;;;2.50;99.90;;;;;;5071137;28;20508;-87
2021/01/02 11:27:28;;;;;;;18.57;11.73;;;;;;;;;;5072583;28;20446;-86
2021/01/02 11:29:54;;;;;;;19.53;12.63;;;;;;;;;;5072537;28;20447;-87
2021/01/02 11:32:21;;;;;;;21.57;12.67;;;2.60;99.90;;;;;;5071267;28;20463;-88
2021/01/02 11:34:47;;;;;;;21.07;12.33;;;2.40;99.90;;;;;;5071730;28;20497;-88
2021/01/02 11:37:14;;;;;;;17.70;12.33;;;2.50;99.90;;;;;;5072632;28;20809;-88
2021/01/02 11:39:41;;;;;;;19.17;11.73;;;2.50;99.90;;;;;;5072438;28;20454;-88
2021/01/02 11:42:11;;;;;;;16.90;11.30;;;2.80;99.90;;;;;;5072491;28;20462;-87
2021/01/02 11:44:37;;;;;;;20.70;12.13;;;2.50;99.90;;;;;;5072292;28;21036;-87
2021/01/02 11:47:04;;;;;;;16.87;11.80;;;2.30;99.90;;;;;;5069795;28;20478;-87
2021/01/02 11:49:32;;;;;;;17.47;11.27;;;2.50;99.90;;;;;;5070926;28;20796;-87
2021/01/02 11:52:01;;;;;;;19.87;12.20;;;2.50;99.90;;;;;;5072375;28;20437;-87
2021/01/02 11:54:30;;;;;;;17.83;11.43;;;2.50;99.90;;;;;;5072254;28;20850;-87
2021/01/02 11:56:57;;;;;;;15.53;10.93;;;2.50;99.90;;;;;;5072345;28;20506;-87
2021/01/02 11:59:24;;;;;;;18.50;11.80;;;2.60;99.90;;;;;;5072311;28;20451;-87
2021/01/02 12:01:53;;;;;;;19.63;12.50;;;2.50;99.90;;;;;;5072258;28;20442;-87
2021/01/02 12:04:22;;;;;;;17.87;11.60;;;2.50;99.90;;;;;;5071006;28;20446;-88
2021/01/02 12:06:48;;;;;;;16.40;11.27;;;2.60;99.90;;;;;;5072250;28;20451;-87
2021/01/02 12:09:16;;;;;;;15.33;10.63;;;2.70;99.90;;;;;;5072474;28;20447;-86
2021/01/02 12:11:45;;;;;;;17.20;11.90;;;2.70;99.90;;;;;;5074080;28;20443;-94
2021/01/02 12:14:15;;;;;;;18.93;12.20;;;2.50;99.90;;;;;;5080213;28;20481;-92
2021/01/02 12:16:44;;;;;;;18.40;11.43;;;2.50;99.90;;;;;;5078735;28;20897;-94
2021/01/02 12:19:12;;;;;;;18.43;12.43;;;2.40;99.90;;;;;;5082459;28;20462;-93
2021/01/02 12:21:40;;;;;;;18.83;12.70;;;2.40;99.90;;;;;;5081166;28;20459;-94
2021/01/02 12:24:07;;;;;;;19.33;12.20;;;2.50;99.90;;;;;;5085597;28;20460;-93
2021/01/02 12:26:34;;;;;;;19.80;14.07;;;;;;;;;;5087483;28;20429;-90
2021/01/02 12:29:01;;;;;;;19.57;12.80;;;;;;;;;;5078346;28;20438;-89
2021/01/02 12:31:29;;;;;;;22.70;14.97;;;2.30;99.90;;;;;;5077687;28;20968;-92
2021/01/02 12:33:56;;;;;;;21.67;13.60;;;2.10;99.90;;;;;;5079597;28;21026;-93
2021/01/02 12:36:32;;;;;;;23.50;14.20;;;2.30;99.90;;;;;;5084461;28;20454;-92
2021/01/02 12:38:58;;;;;;;24.03;14.67;;;2.40;99.90;;;;;;5079628;28;20872;-89
2021/01/02 12:41:25;;;;;;;21.77;13.70;;;2.40;99.90;;;;;;5076247;28;20511;-90
2021/01/02 12:43:51;;;;;;;21.67;15.07;;;;;;;;;;5077908;28;20468;-94
2021/01/02 12:46:18;;;;;;;20.80;13.07;;;2.30;99.90;;;;;;5076613;28;20448;-91
2021/01/02 12:48:54;;;;;;;22.50;14.17;;;2.20;99.90;;;;;;5078462;28;20453;-92
2021/01/02 12:51:22;;;;;;;21.00;12.37;;;2.00;99.90;;;;;;5091341;22;20489;-88
2021/01/02 12:53:49;;;;;;;17.33;12.80;;;1.90;99.90;;;;;;5093796;28;20851;-88
2021/01/02 12:56:15;;;;;;;22.80;15.20;;;2.00;99.90;;;;;;5095811;28;20451;-89
2021/01/02 12:58:41;;;;;;;22.63;15.13;;;1.70;99.90;;;;;;5096137;28;20456;-90
2021/01/02 13:01:08;;;;;;;20.60;12.70;;;;;;;;;;5096133;28;20465;-87
2021/01/02 13:03:35;;;;;;;20.50;13.23;;;2.00;99.90;;;;;;5091837;28;20460;-93